PUA2516 SABE-SACO
Flight info
| Callsign | PUA2516 |
|---|---|
| Flight time | N/A |
| Altitude | 38000 |
| Route | ATOVO4B ATOVO UW5 ASISA ASISA1Q |
| Aircraft | B737/M-SDE2E3FGHIRWXY/LB1 |
Departure
| Time | 2026-05-03 21:41 |
|---|---|
| Airport | Aeroparque Jorge Newbery (SABE) |
Arrival
| Time | N/A |
|---|---|
| Airport | Ingeniero Aeronáutico Ambrosio L.V. Taravella International Airport (SACO) |
| Time | Latitude | Longitude | Altitude | Speed | Heading |
|---|---|---|---|---|---|
| 2026-05-03 20:31 | -34.56076 | -58.40945 | 30 ft | 0 kts | 34° |
| 2026-05-03 21:11 | -34.56081 | -58.40949 | 32 ft | 4 kts | 31° |
| 2026-05-03 21:11 | -34.56102 | -58.40960 | 30 ft | 3 kts | 19° |
| 2026-05-03 21:11 | -34.56119 | -58.40973 | 28 ft | 4 kts | 97° |
| 2026-05-03 21:11 | -34.56107 | -58.40999 | 32 ft | 4 kts | 126° |
| 2026-05-03 21:12 | -34.56102 | -58.41007 | 26 ft | 0 kts | 127° |
| 2026-05-03 21:20 | -34.56112 | -58.40990 | 30 ft | 9 kts | 127° |
| 2026-05-03 21:20 | -34.56144 | -58.40938 | 30 ft | 6 kts | 121° |
| 2026-05-03 21:20 | -34.56158 | -58.40890 | 26 ft | 6 kts | 99° |
| 2026-05-03 21:21 | -34.56159 | -58.40841 | 26 ft | 6 kts | 109° |
| 2026-05-03 21:21 | -34.56180 | -58.40800 | 26 ft | 6 kts | 123° |
| 2026-05-03 21:21 | -34.56203 | -58.40759 | 28 ft | 6 kts | 123° |
| 2026-05-03 21:21 | -34.56225 | -58.40720 | 31 ft | 5 kts | 125° |
| 2026-05-03 21:22 | -34.56226 | -58.40719 | 30 ft | 0 kts | 125° |
| 2026-05-03 21:24 | -34.56228 | -58.40714 | 29 ft | 2 kts | 125° |
| 2026-05-03 21:24 | -34.56239 | -58.40696 | 28 ft | 2 kts | 126° |
| 2026-05-03 21:24 | -34.56240 | -58.40694 | 28 ft | 0 kts | 125° |
| 2026-05-03 21:25 | -34.56241 | -58.40692 | 30 ft | 2 kts | 125° |
| 2026-05-03 21:25 | -34.56261 | -58.40658 | 27 ft | 0 kts | 124° |
| 2026-05-03 21:26 | -34.56262 | -58.40655 | 26 ft | 3 kts | 124° |
| 2026-05-03 21:26 | -34.56282 | -58.40619 | 29 ft | 5 kts | 124° |
| 2026-05-03 21:26 | -34.56283 | -58.40618 | 29 ft | 0 kts | 124° |
| 2026-05-03 21:28 | -34.56287 | -58.40611 | 27 ft | 5 kts | 124° |
| 2026-05-03 21:28 | -34.56316 | -58.40558 | 28 ft | 8 kts | 124° |
| 2026-05-03 21:28 | -34.56333 | -58.40532 | 27 ft | 0 kts | 130° |
| 2026-05-03 21:29 | -34.56334 | -58.40530 | 27 ft | 2 kts | 130° |
| 2026-05-03 21:29 | -34.56337 | -58.40526 | 27 ft | 0 kts | 131° |
| 2026-05-03 21:30 | -34.56342 | -58.40519 | 30 ft | 6 kts | 133° |
| 2026-05-03 21:30 | -34.56377 | -58.40480 | 26 ft | 5 kts | 138° |
| 2026-05-03 21:30 | -34.56405 | -58.40450 | 26 ft | 5 kts | 139° |
| 2026-05-03 21:31 | -34.56408 | -58.40446 | 26 ft | 0 kts | 139° |
| 2026-05-03 21:33 | -34.56433 | -58.40422 | 28 ft | 7 kts | 140° |
| 2026-05-03 21:34 | -34.56469 | -58.40385 | 28 ft | 2 kts | 141° |
| 2026-05-03 21:34 | -34.56470 | -58.40384 | 29 ft | 0 kts | 141° |
| 2026-05-03 21:36 | -34.56492 | -58.40364 | 30 ft | 9 kts | 150° |
| 2026-05-03 21:36 | -34.56548 | -58.40382 | 24 ft | 9 kts | 214° |
| 2026-05-03 21:36 | -34.56559 | -58.40441 | 24 ft | 8 kts | 298° |
| 2026-05-03 21:37 | -34.56527 | -58.40491 | 26 ft | 7 kts | 304° |
| 2026-05-03 21:37 | -34.56522 | -58.40501 | 24 ft | 0 kts | 303° |
| 2026-05-03 21:39 | -34.56521 | -58.40503 | 24 ft | 0 kts | 303° |
| 2026-05-03 21:39 | -34.56517 | -58.40510 | 27 ft | 0 kts | 303° |
| 2026-05-03 21:40 | -34.56507 | -58.40528 | 26 ft | 21 kts | 303° |
| 2026-05-03 21:40 | -34.56246 | -58.41000 | 29 ft | 110 kts | 303° |
| 2026-05-03 21:40 | -34.55699 | -58.41974 | 249 ft | 157 kts | 305° |
| 2026-05-03 21:41 | -34.55098 | -58.43213 | 1122 ft | 184 kts | 302° |
| 2026-05-03 21:41 | -34.54516 | -58.44569 | 2567 ft | 174 kts | 298° |
| 2026-05-03 21:41 | -34.53967 | -58.45965 | 3532 ft | 197 kts | 298° |
| 2026-05-03 21:41 | -34.53228 | -58.47477 | 4319 ft | 222 kts | 303° |